Time;durP1;ratioP1;P1;durP2;ratioP2;P2;SDS_P1;SDS_P2;PMS_P1;PMS_P2;Temp;Humidity;BMP_temperature;BMP_pressure;BME280_temperature;BME280_humidity;BME280_pressure;Samples;Min_cycle;Max_cycle;Signal;HPM_P1;HPM_P2
2023/08/28 00:01:43;;;;;;;0.73;0.73;;;;;;;;;;5076610;28;20094;-22
2023/08/28 00:04:09;;;;;;;0.90;0.90;;;;;;;;;;5076564;28;20017;-24
2023/08/28 00:06:35;;;;;;;0.88;0.88;;;;;;;;;;5076512;28;20104;-21
2023/08/28 00:09:01;;;;;;;0.93;0.93;;;;;;;;;;5076495;28;20029;-19
2023/08/28 00:11:27;;;;;;;0.80;0.80;;;;;;;;;;5076983;28;20039;-24
2023/08/28 00:13:53;;;;;;;0.80;0.80;;;;;;;;;;5076324;28;20024;-22
2023/08/28 00:16:19;;;;;;;0.77;0.77;;;;;;;;;;5076346;28;20137;-26
2023/08/28 00:18:45;;;;;;;0.90;0.90;;;;;;;;;;5076566;28;20025;-22
2023/08/28 00:21:11;;;;;;;0.70;0.70;;;;;;;;;;5076291;28;20059;-22
2023/08/28 00:23:38;;;;;;;0.85;0.85;;;;;;;;;;5076424;28;20399;-23
2023/08/28 00:26:04;;;;;;;0.90;0.90;;;;;;;;;;5076131;28;20443;-25
2023/08/28 00:28:30;;;;;;;0.80;0.80;;;;;;;;;;5076394;28;20056;-19
2023/08/28 00:30:56;;;;;;;1.17;1.08;;;;;;;;;;5076214;28;20035;-19
2023/08/28 00:33:22;;;;;;;1.08;1.08;;;;;;;;;;5076187;28;20020;-22
2023/08/28 00:35:49;;;;;;;0.80;0.80;;;;;;;;;;5075906;28;20462;-25
2023/08/28 00:38:16;;;;;;;0.85;0.85;;;;;;;;;;5075942;28;20024;-22
2023/08/28 00:40:42;;;;;;;0.80;0.80;;;;;;;;;;5074933;28;20428;-22
2023/08/28 00:43:08;;;;;;;0.85;0.85;;;;;;;;;;5075990;28;20028;-22
2023/08/28 00:45:38;;;;;;;0.85;0.85;;;;;;;;;;5075736;28;20021;-21
2023/08/28 00:48:04;;;;;;;1.05;1.05;;;;;;;;;;5075953;28;20035;-19
2023/08/28 00:50:31;;;;;;;1.77;1.00;;;;;;;;;;5076212;28;20451;-22
2023/08/28 00:52:57;;;;;;;0.70;0.70;;;;;;;;;;5075575;28;20105;-23
2023/08/28 00:55:23;;;;;;;1.00;1.00;;;;;;;;;;5075547;28;20040;-20
2023/08/28 00:57:49;;;;;;;0.80;0.80;;;;;;;;;;5075747;28;20032;-22
2023/08/28 01:00:16;;;;;;;0.73;0.73;;;;;;;;;;5075752;28;20086;-27
2023/08/28 01:02:42;;;;;;;0.65;0.65;;;;;;;;;;5075341;28;20031;-21
2023/08/28 01:05:09;;;;;;;0.70;0.70;;;;;;;;;;5075658;28;20163;-23
2023/08/28 01:07:39;;;;;;;0.80;0.80;;;;;;;;;;5075573;28;20024;-19
2023/08/28 01:10:12;;;;;;;0.93;0.93;;;;;;;;;;5075214;28;20099;-18
2023/08/28 01:12:38;;;;;;;1.08;1.08;;;;;;;;;;5075092;28;20039;-21
2023/08/28 01:15:10;;;;;;;0.85;0.85;;;;;;;;;;5075464;28;20028;-21
2023/08/28 01:17:37;;;;;;;0.77;0.77;;;;;;;;;;5074117;28;20033;-21
2023/08/28 01:20:04;;;;;;;0.98;0.98;;;;;;;;;;5074108;28;20452;-19
2023/08/28 01:22:43;;;;;;;0.65;0.65;;;;;;;;;;5075733;28;20034;-20
2023/08/28 01:25:10;;;;;;;0.90;0.90;;;;;;;;;;5074166;28;20111;-22
2023/08/28 01:27:40;;;;;;;0.95;0.95;;;;;;;;;;5074953;28;20028;-23
2023/08/28 01:30:13;;;;;;;0.70;0.70;;;;;;;;;;5075243;28;20130;-20
2023/08/28 01:32:40;;;;;;;0.60;0.60;;;;;;;;;;5075144;28;20502;-19
2023/08/28 01:35:08;;;;;;;0.88;0.88;;;;;;;;;;5075138;28;20021;-20
2023/08/28 01:37:39;;;;;;;0.80;0.80;;;;;;;;;;5075033;28;20078;-25
2023/08/28 01:40:05;;;;;;;;;;;;;;;;;;5075571;28;20046;-28
2023/08/28 01:42:33;;;;;;;0.75;0.75;;;;;;;;;;5074276;28;20003;-22
2023/08/28 01:45:00;;;;;;;0.82;0.82;;;;;;;;;;5074771;28;20017;-22
2023/08/28 01:47:27;;;;;;;0.77;0.77;;;;;;;;;;5075013;28;20471;-27
2023/08/28 01:49:53;;;;;;;0.70;0.70;;;;;;;;;;5074724;28;20443;-23
2023/08/28 01:52:20;;;;;;;0.80;0.80;;;;;;;;;;5074619;28;20329;-23
2023/08/28 01:54:46;;;;;;;0.60;0.60;;;;;;;;;;5074690;28;20029;-22
2023/08/28 01:57:12;;;;;;;0.90;0.90;;;;;;;;;;5074845;28;20095;-25
2023/08/28 01:59:38;;;;;;;1.10;1.10;;;;;;;;;;5074586;28;20024;-22
2023/08/28 02:02:04;;;;;;;0.63;0.63;;;;;;;;;;5074761;28;20025;-21
2023/08/28 02:04:30;;;;;;;0.90;0.90;;;;;;;;;;5074563;28;20036;-25
2023/08/28 02:06:57;;;;;;;0.73;0.73;;;;;;;;;;5073577;28;20039;-20
2023/08/28 02:09:23;;;;;;;0.80;0.80;;;;;;;;;;5074519;28;20021;-23
2023/08/28 02:11:49;;;;;;;0.63;0.63;;;;;;;;;;5074666;28;20048;-21
2023/08/28 02:14:15;;;;;;;0.77;0.77;;;;;;;;;;5073542;28;20356;-21
2023/08/28 02:16:41;;;;;;;0.70;0.70;;;;;;;;;;5074364;28;20028;-24
2023/08/28 02:19:07;;;;;;;0.57;0.57;;;;;;;;;;5074653;28;20025;-20
2023/08/28 02:21:34;;;;;;;0.77;0.77;;;;;;;;;;5074677;28;20056;-20
2023/08/28 02:24:00;;;;;;;0.65;0.65;;;;;;;;;;5074555;28;20415;-21
2023/08/28 02:26:26;;;;;;;0.77;0.77;;;;;;;;;;5074293;28;20056;-23
2023/08/28 02:28:52;;;;;;;0.98;0.98;;;;;;;;;;5074351;28;20037;-20
2023/08/28 02:31:18;;;;;;;0.70;0.70;;;;;;;;;;5073373;28;20356;-22
2023/08/28 02:33:45;;;;;;;0.50;0.50;;;;;;;;;;5074144;28;20025;-24
2023/08/28 02:36:11;;;;;;;0.85;0.85;;;;;;;;;;5074159;28;20024;-21
2023/08/28 02:38:37;;;;;;;0.98;0.80;;;;;;;;;;5074227;28;20052;-24
2023/08/28 02:41:04;;;;;;;0.90;0.90;;;;;;;;;;5074198;28;20024;-19
2023/08/28 02:43:31;;;;;;;0.47;0.47;;;;;;;;;;5074128;28;20365;-22
2023/08/28 02:45:57;;;;;;;0.73;0.73;;;;;;;;;;5074110;28;20031;-20
2023/08/28 02:48:23;;;;;;;0.85;0.85;;;;;;;;;;5074123;28;20151;-25
2023/08/28 02:50:50;;;;;;;0.80;0.80;;;;;;;;;;5074107;28;20047;-24
2023/08/28 02:53:16;;;;;;;0.63;0.63;;;;;;;;;;5074347;28;20399;-20
2023/08/28 02:55:42;;;;;;;0.90;0.90;;;;;;;;;;5076265;28;20048;-22
2023/08/28 02:58:09;;;;;;;0.80;0.80;;;;;;;;;;5078083;28;20029;-21
2023/08/28 03:00:37;;;;;;;0.60;0.60;;;;;;;;;;5078024;28;20122;-24
2023/08/28 03:03:03;;;;;;;0.52;0.52;;;;;;;;;;5077605;28;20100;-20
2023/08/28 03:05:30;;;;;;;0.70;0.70;;;;;;;;;;5077074;28;20082;-27
2023/08/28 03:07:56;;;;;;;0.80;0.80;;;;;;;;;;5077626;28;20333;-23
2023/08/28 03:10:23;;;;;;;0.57;0.57;;;;;;;;;;5077617;28;20444;-21
2023/08/28 03:12:49;;;;;;;0.70;0.70;;;;;;;;;;5077460;28;20020;-24
2023/08/28 03:15:15;;;;;;;0.60;0.60;;;;;;;;;;5077552;28;20029;-20
2023/08/28 03:17:41;;;;;;;0.60;0.60;;;;;;;;;;5077424;28;20029;-22
2023/08/28 03:20:09;;;;;;;0.80;0.80;;;;;;;;;;5076535;28;20344;-21
2023/08/28 03:22:35;;;;;;;0.55;0.55;;;;;;;;;;5077341;28;20035;-21
2023/08/28 03:25:02;;;;;;;0.63;0.63;;;;;;;;;;5077624;28;20028;-25
2023/08/28 03:27:28;;;;;;;0.90;0.90;;;;;;;;;;5077299;28;20028;-21
2023/08/28 03:29:54;;;;;;;0.57;0.57;;;;;;;;;;5077211;28;20355;-19
2023/08/28 03:32:20;;;;;;;0.50;0.50;;;;;;;;;;5077360;28;20025;-23
2023/08/28 03:34:46;;;;;;;0.60;0.60;;;;;;;;;;5077211;28;20035;-23
2023/08/28 03:37:12;;;;;;;0.63;0.63;;;;;;;;;;5077300;28;20107;-21
2023/08/28 03:39:38;;;;;;;0.70;0.70;;;;;;;;;;5077037;28;20024;-23
2023/08/28 03:42:05;;;;;;;0.55;0.55;;;;;;;;;;5076978;28;20098;-25
2023/08/28 03:44:31;;;;;;;0.75;0.75;;;;;;;;;;5077260;28;20013;-21
2023/08/28 03:46:57;;;;;;;0.80;0.80;;;;;;;;;;5077213;28;20028;-21
2023/08/28 03:49:26;;;;;;;0.68;0.68;;;;;;;;;;5076934;28;20130;-19
2023/08/28 03:51:54;;;;;;;0.52;0.52;;;;;;;;;;5076764;28;20028;-22
2023/08/28 03:54:21;;;;;;;0.70;0.70;;;;;;;;;;5077062;28;20044;-20
2023/08/28 03:56:47;;;;;;;0.70;0.70;;;;;;;;;;5075447;28;20048;-21
2023/08/28 03:59:13;;;;;;;0.63;0.63;;;;;;;;;;5076914;28;20031;-29
2023/08/28 04:01:39;;;;;;;0.50;0.50;;;;;;;;;;5076908;28;20328;-22
2023/08/28 04:04:05;;;;;;;0.63;0.63;;;;;;;;;;5076545;28;20045;-22
2023/08/28 04:06:31;;;;;;;0.47;0.47;;;;;;;;;;5076025;28;20035;-20
2023/08/28 04:08:58;;;;;;;0.60;0.60;;;;;;;;;;5076628;28;20024;-19
2023/08/28 04:11:24;;;;;;;0.60;0.60;;;;;;;;;;5076245;28;20020;-24
2023/08/28 04:13:50;;;;;;;0.60;0.60;;;;;;;;;;5076623;28;20032;-24
2023/08/28 04:16:18;;;;;;;0.98;0.98;;;;;;;;;;5075223;28;20108;-21
2023/08/28 04:18:44;;;;;;;0.70;0.70;;;;;;;;;;5076169;28;20017;-21
2023/08/28 04:21:10;;;;;;;0.75;0.75;;;;;;;;;;5076281;28;20021;-23
2023/08/28 04:23:37;;;;;;;0.60;0.60;;;;;;;;;;5075964;28;20024;-25
2023/08/28 04:26:03;;;;;;;0.65;0.65;;;;;;;;;;5075019;28;20112;-26
2023/08/28 04:28:30;;;;;;;0.68;0.68;;;;;;;;;;5075876;28;20035;-22
2023/08/28 04:30:56;;;;;;;0.70;0.70;;;;;;;;;;5076170;28;20029;-25
2023/08/28 04:33:23;;;;;;;0.73;0.73;;;;;;;;;;5076008;28;20035;-22
2023/08/28 04:35:49;;;;;;;1.00;0.65;;;;;;;;;;5076016;28;20024;-23
2023/08/28 04:38:16;;;;;;;0.98;0.65;;;;;;;;;;5076013;28;20437;-19
2023/08/28 04:40:42;;;;;;;0.70;0.70;;;;;;;;;;5074855;28;20020;-21
2023/08/28 04:43:08;;;;;;;0.90;0.90;;;;;;;;;;5074501;28;20060;-22
2023/08/28 04:45:34;;;;;;;1.33;0.63;;;;;;;;;;5074581;28;20436;-22
2023/08/28 04:48:00;;;;;;;1.85;0.90;;;;;;;;;;5075449;28;20028;-21
2023/08/28 04:50:26;;;;;;;2.65;0.75;;;;;;;;;;5075434;28;20063;-25
2023/08/28 04:52:52;;;;;;;1.13;0.80;;;;;;;;;;5074285;28;20028;-24
2023/08/28 04:55:19;;;;;;;1.65;0.80;;;;;;;;;;5075663;28;20372;-20
2023/08/28 04:57:45;;;;;;;2.60;0.60;;;;;;;;;;5075482;28;20077;-21
2023/08/28 05:00:11;;;;;;;1.38;0.52;;;;;;;;;;5075211;28;20025;-24
2023/08/28 05:02:37;;;;;;;2.55;0.90;;;;;;;;;;5075174;28;20025;-26
2023/08/28 05:05:04;;;;;;;2.20;0.60;;;;;;;;;;5075406;28;20419;-22
2023/08/28 05:07:30;;;;;;;0.82;0.57;;;;;;;;;;5075436;28;20060;-23
2023/08/28 05:09:56;;;;;;;0.80;0.80;;;;;;;;;;5074287;28;20033;-23
2023/08/28 05:12:22;;;;;;;0.80;0.75;;;;;;;;;;5075278;28;20021;-21
2023/08/28 05:14:48;;;;;;;2.50;0.60;;;;;;;;;;5075041;28;20086;-21
2023/08/28 05:17:14;;;;;;;1.00;0.75;;;;;;;;;;5074261;28;20025;-22
2023/08/28 05:19:40;;;;;;;1.08;0.60;;;;;;;;;;5075042;28;20029;-25
2023/08/28 05:22:07;;;;;;;0.70;0.70;;;;;;;;;;5074900;28;20036;-24
2023/08/28 05:24:33;;;;;;;1.55;0.77;;;;;;;;;;5075033;28;20078;-21
2023/08/28 05:26:59;;;;;;;1.38;1.00;;;;;;;;;;5074702;28;20392;-22
2023/08/28 05:29:25;;;;;;;1.27;0.73;;;;;;;;;;5074843;28;20103;-24
2023/08/28 05:31:51;;;;;;;3.13;1.17;;;;;;;;;;5075261;28;20056;-20
2023/08/28 05:34:17;;;;;;;1.85;0.95;;;;;;;;;;5073686;28;20032;-21
2023/08/28 05:36:43;;;;;;;1.33;0.95;;;;;;;;;;5074842;28;20332;-25
2023/08/28 05:39:09;;;;;;;1.15;0.80;;;;;;;;;;5074630;28;20035;-22
2023/08/28 05:41:35;;;;;;;3.60;0.90;;;;;;;;;;5074650;28;20075;-26
2023/08/28 05:44:02;;;;;;;3.08;0.80;;;;;;;;;;5074672;28;20021;-26
2023/08/28 05:46:28;;;;;;;1.73;0.65;;;;;;;;;;5074605;28;20031;-21
2023/08/28 05:48:54;;;;;;;1.80;1.02;;;;;;;;;;5073511;28;20044;-21
2023/08/28 05:51:20;;;;;;;3.85;0.80;;;;;;;;;;5074708;28;20025;-19
2023/08/28 05:53:46;;;;;;;6.05;1.10;;;;;;;;;;5074845;28;20032;-23
2023/08/28 05:56:12;;;;;;;1.52;0.73;;;;;;;;;;5074203;28;20053;-25
2023/08/28 05:58:38;;;;;;;6.47;1.00;;;;;;;;;;5073438;28;20025;-24
2023/08/28 06:03:40;;;;;;;4.63;0.80;;;;;;;;;;5239633;22;20152;-25
2023/08/28 06:06:07;;;;;;;2.67;1.13;;;;;;;;;;5016799;28;20021;-27
2023/08/28 06:08:34;;;;;;;3.47;0.63;;;;;;;;;;5034262;28;20471;-24
2023/08/28 06:11:00;;;;;;;1.15;0.90;;;;;;;;;;5034084;28;20026;-28
2023/08/28 06:13:26;;;;;;;5.93;0.65;;;;;;;;;;5034205;28;20033;-26
2023/08/28 06:15:52;;;;;;;5.32;1.00;;;;;;;;;;5034021;28;20072;-25
2023/08/28 06:18:19;;;;;;;2.33;1.00;;;;;;;;;;5034181;28;20029;-27
2023/08/28 06:20:45;;;;;;;2.78;0.65;;;;;;;;;;5034373;28;20029;-25
2023/08/28 06:23:11;;;;;;;1.67;0.80;;;;;;;;;;5016603;28;20108;-26
2023/08/28 06:25:37;;;;;;;0.80;0.70;;;;;;;;;;5034107;28;20017;-27
2023/08/28 06:28:04;;;;;;;5.63;1.25;;;;;;;;;;5034238;28;20109;-27
2023/08/28 06:30:31;;;;;;;1.30;0.75;;;;;;;;;;5038342;28;20057;-29
2023/08/28 06:32:58;;;;;;;0.70;0.60;;;;;;;;;;5037977;28;20036;-26
2023/08/28 06:35:24;;;;;;;0.93;0.85;;;;;;;;;;5038562;28;20115;-27
2023/08/28 06:37:50;;;;;;;0.60;0.60;;;;;;;;;;5037815;28;20026;-27
2023/08/28 06:40:17;;;;;;;3.28;0.80;;;;;;;;;;5037909;28;20036;-26
2023/08/28 06:42:43;;;;;;;2.78;0.60;;;;;;;;;;5020407;28;20124;-27
2023/08/28 06:45:09;;;;;;;0.63;0.60;;;;;;;;;;5038099;28;20053;-25
2023/08/28 06:47:35;;;;;;;3.90;0.70;;;;;;;;;;5037997;28;20036;-26
2023/08/28 06:50:02;;;;;;;2.28;0.77;;;;;;;;;;5020321;28;20337;-24
2023/08/28 06:52:28;;;;;;;0.93;0.68;;;;;;;;;;5037624;28;20025;-25
2023/08/28 06:54:54;;;;;;;1.80;1.00;;;;;;;;;;5037708;28;20124;-25
2023/08/28 06:57:21;;;;;;;1.70;0.77;;;;;;;;;;5020278;28;20025;-27
2023/08/28 06:59:48;;;;;;;1.95;0.93;;;;;;;;;;5020224;28;20022;-26
2023/08/28 07:02:14;;;;;;;1.30;0.60;;;;;;;;;;5037250;28;20072;-26
2023/08/28 07:04:41;;;;;;;1.17;1.02;;;;;;;;;;5037601;28;20100;-27
2023/08/28 07:07:07;;;;;;;2.47;0.75;;;;;;;;;;5037260;28;20401;-25
2023/08/28 07:09:33;;;;;;;3.28;0.98;;;;;;;;;;5037528;28;20022;-28
2023/08/28 07:11:59;;;;;;;1.58;1.23;;;;;;;;;;5037807;28;20025;-24
2023/08/28 07:14:25;;;;;;;0.60;0.60;;;;;;;;;;5037678;28;20087;-27
2023/08/28 07:16:52;;;;;;;5.30;1.15;;;;;;;;;;5019883;28;20091;-27
2023/08/28 07:19:18;;;;;;;5.95;1.20;;;;;;;;;;5037434;28;20040;-25
2023/08/28 07:21:44;;;;;;;3.40;0.90;;;;;;;;;;5037514;28;20022;-28
2023/08/28 07:24:10;;;;;;;1.92;0.95;;;;;;;;;;5037137;28;20023;-27
2023/08/28 07:26:36;;;;;;;1.15;0.77;;;;;;;;;;5037086;28;20037;-26
2023/08/28 07:29:02;;;;;;;2.42;1.13;;;;;;;;;;5037038;28;20367;-27
2023/08/28 07:31:28;;;;;;;3.08;0.93;;;;;;;;;;5037295;28;20026;-27
2023/08/28 07:33:55;;;;;;;7.97;1.35;;;;;;;;;;5036816;28;20040;-28
2023/08/28 07:36:22;;;;;;;4.60;1.63;;;;;;;;;;5036807;28;20033;-26
2023/08/28 07:38:48;;;;;;;6.88;1.00;;;;;;;;;;5036952;28;20017;-27
2023/08/28 07:41:16;;;;;;;1.58;0.80;;;;;;;;;;5036255;28;20021;-23
2023/08/28 07:43:44;;;;;;;5.75;1.20;;;;;;;;;;5036887;28;20411;-26
2023/08/28 07:46:10;;;;;;;6.05;1.00;;;;;;;;;;5037084;28;20095;-24
2023/08/28 07:48:36;;;;;;;11.13;1.00;;;;;;;;;;5036705;28;20404;-25
2023/08/28 07:51:03;;;;;;;2.17;0.95;;;;;;;;;;5036816;28;20128;-25
2023/08/28 07:53:30;;;;;;;5.65;1.55;;;;;;;;;;5036735;28;20025;-24
2023/08/28 07:55:56;;;;;;;1.67;0.98;;;;;;;;;;5019216;28;20025;-29
2023/08/28 07:58:22;;;;;;;3.47;1.30;;;;;;;;;;5036857;28;20022;-24
2023/08/28 08:00:48;;;;;;;3.55;1.20;;;;;;;;;;5019838;28;20436;-26
2023/08/28 08:03:14;;;;;;;7.18;1.20;;;;;;;;;;5036377;28;20056;-28
2023/08/28 08:05:41;;;;;;;5.53;0.95;;;;;;;;;;5036915;28;20348;-24
2023/08/28 08:08:07;;;;;;;1.88;1.02;;;;;;;;;;5036578;28;20033;-25
2023/08/28 08:10:33;;;;;;;1.63;0.77;;;;;;;;;;5036821;28;20029;-28
2023/08/28 08:12:59;;;;;;;5.05;0.90;;;;;;;;;;5036503;28;20117;-25
2023/08/28 08:15:26;;;;;;;3.47;1.05;;;;;;;;;;5018919;28;20022;-26
2023/08/28 08:17:52;;;;;;;1.85;0.80;;;;;;;;;;5036357;28;20032;-27
2023/08/28 08:20:20;;;;;;;3.03;0.80;;;;;;;;;;5036358;28;20021;-27
2023/08/28 08:22:46;;;;;;;4.68;0.93;;;;;;;;;;5036126;28;20026;-27
2023/08/28 08:25:13;;;;;;;0.98;0.73;;;;;;;;;;5035935;28;20490;-26
2023/08/28 08:27:39;;;;;;;4.68;1.35;;;;;;;;;;5036378;28;20107;-25
2023/08/28 08:30:07;;;;;;;1.67;0.95;;;;;;;;;;5036132;28;20111;-26
2023/08/28 08:32:33;;;;;;;4.93;1.10;;;;;;;;;;5035936;28;20033;-24
2023/08/28 08:34:59;;;;;;;8.13;1.00;;;;;;;;;;5036085;28;20426;-26
2023/08/28 08:37:28;;;;;;;4.78;1.63;;;;;;;;;;5035827;28;20037;-25
2023/08/28 08:39:54;;;;;;;7.93;1.10;;;;;;;;;;5035906;28;20049;-27
2023/08/28 08:42:20;;;;;;;8.27;1.33;;;;;;;;;;5035795;28;20021;-26
2023/08/28 08:44:47;;;;;;;3.83;0.85;;;;;;;;;;5035831;28;20352;-24
2023/08/28 08:47:16;;;;;;;4.93;0.90;;;;;;;;;;5017998;28;20021;-25
2023/08/28 08:49:42;;;;;;;2.40;1.10;;;;;;;;;;5035505;28;20018;-28
2023/08/28 08:52:09;;;;;;;3.75;1.05;;;;;;;;;;5035338;28;20040;-24
2023/08/28 08:54:39;;;;;;;6.35;1.15;;;;;;;;;;5035622;28;20030;-27
2023/08/28 08:57:09;;;;;;;7.40;1.10;;;;;;;;;;5035283;28;20108;-26
2023/08/28 08:59:35;;;;;;;3.08;0.90;;;;;;;;;;5035543;28;20123;-25
2023/08/28 09:02:02;;;;;;;4.15;1.38;;;;;;;;;;5017712;28;20116;-27
2023/08/28 09:04:29;;;;;;;4.63;1.52;;;;;;;;;;5035045;28;20037;-29
2023/08/28 09:06:58;;;;;;;4.55;1.20;;;;;;;;;;5035387;28;20108;-34
2023/08/28 09:09:24;;;;;;;10.00;1.63;;;;;;;;;;5035106;28;20099;-26
2023/08/28 09:11:50;;;;;;;6.57;0.90;;;;;;;;;;5035271;28;20337;-27
2023/08/28 09:14:16;;;;;;;3.13;1.23;;;;;;;;;;5035056;28;20049;-25
2023/08/28 09:16:43;;;;;;;4.50;1.42;;;;;;;;;;5034926;28;20028;-25
2023/08/28 09:19:09;;;;;;;6.88;1.20;;;;;;;;;;5034913;28;20100;-26
2023/08/28 09:21:35;;;;;;;2.70;1.10;;;;;;;;;;5034784;28;20029;-26
2023/08/28 09:24:02;;;;;;;2.55;1.13;;;;;;;;;;5017294;28;20025;-27
2023/08/28 09:26:28;;;;;;;4.88;1.08;;;;;;;;;;5034797;28;20391;-25
2023/08/28 09:29:07;;;;;;;2.20;1.10;;;;;;;;;;5034597;28;20413;-27
2023/08/28 09:31:34;;;;;;;2.55;0.90;;;;;;;;;;5034788;28;20021;-29
2023/08/28 09:34:02;;;;;;;8.98;2.53;;;;;;;;;;5017034;28;20029;-27
2023/08/28 09:36:28;;;;;;;4.78;1.33;;;;;;;;;;5034423;28;20065;-27
2023/08/28 09:39:04;;;;;;;3.67;1.20;;;;;;;;;;5034569;28;20021;-27
2023/08/28 09:41:39;;;;;;;11.32;1.85;;;;;;;;;;5034828;28;20017;-28
2023/08/28 09:44:05;;;;;;;9.15;1.40;;;;;;;;;;5034647;28;20417;-23
2023/08/28 09:46:31;;;;;;;30.40;3.15;;;;;;;;;;5034577;28;20448;-25
2023/08/28 09:48:58;;;;;;;13.73;1.67;;;;;;;;;;5034666;28;20055;-27
2023/08/28 09:51:37;;;;;;;5.68;1.58;;;;;;;;;;5017236;28;20065;-28
2023/08/28 09:54:05;;;;;;;4.20;1.30;;;;;;;;;;5017174;28;20104;-27
2023/08/28 09:56:31;;;;;;;5.68;1.55;;;;;;;;;;5034466;28;20360;-24
2023/08/28 09:58:58;;;;;;;7.40;1.98;;;;;;;;;;5034399;28;20032;-25
2023/08/28 10:01:26;;;;;;;3.67;1.20;;;;;;;;;;5034397;28;20097;-27
2023/08/28 10:03:52;;;;;;;8.60;1.55;;;;;;;;;;5033797;28;20069;-28
2023/08/28 10:06:19;;;;;;;5.28;1.30;;;;;;;;;;5034667;28;20032;-28
2023/08/28 10:08:46;;;;;;;5.40;1.77;;;;;;;;;;5034342;28;20033;-29
2023/08/28 10:11:13;;;;;;;5.72;0.95;;;;;;;;;;5016932;28;20120;-29
2023/08/28 10:13:39;;;;;;;7.95;1.38;;;;;;;;;;5034657;28;20029;-25
2023/08/28 10:16:07;;;;;;;9.48;1.70;;;;;;;;;;5034349;28;20033;-27
2023/08/28 10:18:38;;;;;;;7.30;1.02;;;;;;;;;;5034348;28;20079;-27
2023/08/28 10:21:06;;;;;;;8.43;1.33;;;;;;;;;;5034308;28;20026;-27
2023/08/28 10:23:32;;;;;;;2.60;1.05;;;;;;;;;;5017120;28;20057;-28
2023/08/28 10:25:59;;;;;;;3.17;1.00;;;;;;;;;;5033928;28;20021;-27
2023/08/28 10:28:26;;;;;;;4.05;1.42;;;;;;;;;;5034084;28;20411;-27
2023/08/28 10:30:52;;;;;;;8.23;1.25;;;;;;;;;;5034484;28;20029;-26
2023/08/28 10:33:20;;;;;;;3.88;1.35;;;;;;;;;;5034220;28;20096;-26
2023/08/28 10:35:50;;;;;;;2.33;1.30;;;;;;;;;;5034200;28;20040;-28
2023/08/28 10:38:17;;;;;;;10.80;1.60;;;;;;;;;;5034433;28;20102;-29
2023/08/28 10:40:44;;;;;;;4.07;1.50;;;;;;;;;;5034106;28;20264;-25
2023/08/28 10:43:11;;;;;;;5.25;2.15;;;;;;;;;;5016497;28;20463;-27
2023/08/28 10:45:38;;;;;;;9.05;1.77;;;;;;;;;;5034332;28;20045;-26
2023/08/28 10:48:06;;;;;;;7.28;1.75;;;;;;;;;;5034066;28;20030;-28
2023/08/28 10:50:36;;;;;;;2.90;1.13;;;;;;;;;;5034300;28;20359;-28
2023/08/28 10:53:03;;;;;;;11.23;1.58;;;;;;;;;;5034286;28;20033;-25
2023/08/28 10:55:29;;;;;;;5.05;1.33;;;;;;;;;;5034008;28;20079;-28
2023/08/28 10:57:55;;;;;;;1.48;1.00;;;;;;;;;;5033713;28;20033;-27
2023/08/28 11:00:22;;;;;;;3.75;1.13;;;;;;;;;;5033834;28;20032;-26
2023/08/28 11:03:08;;;;;;;2.85;1.75;;;;;;;;;;5016190;28;20317;-27
2023/08/28 11:05:34;;;;;;;4.90;1.40;;;;;;;;;;5033683;28;20025;-25
2023/08/28 11:08:04;;;;;;;3.70;1.27;;;;;;;;;;5033667;28;20452;-27
2023/08/28 11:10:30;;;;;;;4.68;2.03;;;;;;;;;;5033586;28;20040;-27
2023/08/28 11:13:15;;;;;;;7.15;1.48;;;;;;;;;;5016201;28;20033;-27
2023/08/28 11:15:43;;;;;;;2.78;1.02;;;;;;;;;;5034724;28;20456;-24
2023/08/28 11:18:27;;;;;;;3.75;2.58;;;;;;;;;;5037104;28;20112;-26
2023/08/28 11:20:56;;;;;;;7.82;2.03;;;;;;;;;;5037343;28;20460;-28
2023/08/28 11:23:24;;;;;;;7.03;1.35;;;;;;;;;;5037576;28;20372;-26
2023/08/28 11:25:50;;;;;;;6.95;1.45;;;;;;;;;;5037530;28;20104;-26
2023/08/28 11:28:27;;;;;;;2.53;1.08;;;;;;;;;;5037402;28;20029;-25
2023/08/28 11:30:57;;;;;;;10.23;1.60;;;;;;;;;;5037439;28;20025;-23
2023/08/28 11:33:23;;;;;;;1.50;1.23;;;;;;;;;;5037397;28;20107;-26
2023/08/28 11:35:49;;;;;;;1.63;1.02;;;;;;;;;;5037022;28;20333;-26
2023/08/28 11:38:16;;;;;;;8.45;1.48;;;;;;;;;;5037018;28;20106;-27
2023/08/28 11:40:43;;;;;;;11.20;2.35;;;;;;;;;;5019552;28;20468;-28
2023/08/28 11:43:11;;;;;;;3.17;1.45;;;;;;;;;;5036889;28;20025;-26
2023/08/28 11:45:37;;;;;;;4.35;1.83;;;;;;;;;;5037063;28;20322;-25
2023/08/28 11:48:03;;;;;;;4.63;1.33;;;;;;;;;;5036916;28;20036;-26
2023/08/28 11:50:30;;;;;;;8.60;1.25;;;;;;;;;;5037210;28;20033;-28
2023/08/28 11:52:56;;;;;;;3.90;1.30;;;;;;;;;;5036740;28;20036;-27
2023/08/28 11:55:22;;;;;;;2.53;1.30;;;;;;;;;;5036653;28;20337;-28
2023/08/28 11:57:50;;;;;;;4.45;2.13;;;;;;;;;;5036873;28;20028;-28
2023/08/28 12:00:16;;;;;;;5.07;2.00;;;;;;;;;;5036684;28;20029;-25
2023/08/28 12:02:43;;;;;;;9.15;2.95;;;;;;;;;;5036629;28;20421;-28
2023/08/28 12:05:10;;;;;;;6.28;0.90;;;;;;;;;;5036917;28;20013;-27
2023/08/28 12:07:36;;;;;;;5.18;1.48;;;;;;;;;;5036479;28;20393;-25
2023/08/28 12:10:03;;;;;;;9.93;1.30;;;;;;;;;;5036491;28;20067;-27
2023/08/28 12:12:31;;;;;;;9.57;1.20;;;;;;;;;;5036375;28;20017;-28
2023/08/28 12:14:57;;;;;;;7.80;1.42;;;;;;;;;;5018848;28;20066;-27
2023/08/28 12:17:26;;;;;;;12.77;1.48;;;;;;;;;;5036199;28;20052;-28
2023/08/28 12:19:53;;;;;;;2.67;1.20;;;;;;;;;;5036250;28;20467;-25
2023/08/28 12:22:23;;;;;;;5.63;1.35;;;;;;;;;;5036170;28;20021;-28
2023/08/28 12:24:50;;;;;;;7.53;1.35;;;;;;;;;;5035965;28;20499;-28
2023/08/28 12:27:16;;;;;;;5.13;1.63;;;;;;;;;;5018163;28;20044;-28
2023/08/28 12:29:43;;;;;;;2.08;1.10;;;;;;;;;;5035888;28;20029;-25
2023/08/28 12:32:10;;;;;;;11.60;1.40;;;;;;;;;;5036069;28;20099;-28
2023/08/28 12:34:37;;;;;;;8.93;1.23;;;;;;;;;;5035887;28;20108;-27
2023/08/28 12:37:07;;;;;;;12.73;1.50;;;;;;;;;;5018379;28;20476;-28
2023/08/28 12:39:34;;;;;;;4.40;1.40;;;;;;;;;;5035926;28;20021;-25
2023/08/28 12:42:00;;;;;;;10.00;1.83;;;;;;;;;;5035765;28;20035;-29
2023/08/28 12:44:27;;;;;;;6.88;2.58;;;;;;;;;;5035881;28;20079;-26
2023/08/28 12:46:53;;;;;;;3.80;2.00;;;;;;;;;;5018302;28;20033;-28
2023/08/28 12:49:20;;;;;;;6.95;1.50;;;;;;;;;;5035728;28;20025;-28
2023/08/28 12:51:46;;;;;;;5.75;1.50;;;;;;;;;;5035479;28;20053;-27
2023/08/28 12:54:13;;;;;;;5.28;1.33;;;;;;;;;;5035683;28;20060;-27
2023/08/28 12:56:39;;;;;;;3.42;0.95;;;;;;;;;;5035477;28;20087;-25
2023/08/28 12:59:06;;;;;;;4.30;1.60;;;;;;;;;;5018010;28;20045;-26
2023/08/28 13:01:32;;;;;;;5.53;1.45;;;;;;;;;;5036158;28;20025;-27
2023/08/28 13:03:58;;;;;;;6.22;1.27;;;;;;;;;;5035117;28;20052;-25
2023/08/28 13:06:24;;;;;;;9.55;1.70;;;;;;;;;;5035703;28;20476;-35
2023/08/28 13:08:51;;;;;;;7.30;1.30;;;;;;;;;;5035369;28;20097;-24
2023/08/28 13:11:18;;;;;;;4.47;1.83;;;;;;;;;;5035331;28;20040;-25
2023/08/28 13:13:44;;;;;;;10.85;1.48;;;;;;;;;;5035270;28;20026;-26
2023/08/28 13:16:10;;;;;;;8.40;1.10;;;;;;;;;;5035227;28;20355;-28
2023/08/28 13:18:36;;;;;;;5.70;1.80;;;;;;;;;;5035374;28;20025;-29
2023/08/28 13:21:05;;;;;;;10.25;1.90;;;;;;;;;;5018045;28;20021;-28
2023/08/28 13:23:31;;;;;;;9.10;2.38;;;;;;;;;;5035221;28;20037;-25
2023/08/28 13:25:58;;;;;;;2.28;1.50;;;;;;;;;;5035107;28;20348;-24
2023/08/28 13:28:24;;;;;;;7.72;1.85;;;;;;;;;;5017661;28;20029;-24
2023/08/28 13:30:50;;;;;;;7.20;1.40;;;;;;;;;;5035027;28;20083;-27
2023/08/28 13:33:16;;;;;;;5.40;1.73;;;;;;;;;;5034977;28;20025;-28
2023/08/28 13:35:42;;;;;;;2.20;1.10;;;;;;;;;;5035002;28;20029;-29
2023/08/28 13:38:08;;;;;;;2.75;1.40;;;;;;;;;;5034277;28;20448;-27
2023/08/28 13:40:35;;;;;;;6.90;1.92;;;;;;;;;;5017429;28;20030;-29
2023/08/28 13:43:04;;;;;;;4.22;1.38;;;;;;;;;;5035153;28;20022;-28
2023/08/28 13:45:30;;;;;;;5.78;1.77;;;;;;;;;;5035060;28;20022;-29
2023/08/28 13:47:57;;;;;;;3.60;1.70;;;;;;;;;;5035056;28;20025;-27
2023/08/28 13:50:23;;;;;;;10.15;1.55;;;;;;;;;;5034761;28;20037;-28
2023/08/28 13:52:50;;;;;;;5.90;1.60;;;;;;;;;;5017266;28;20114;-29
2023/08/28 13:55:16;;;;;;;7.35;1.38;;;;;;;;;;5034925;28;20356;-28
2023/08/28 13:57:42;;;;;;;7.20;1.50;;;;;;;;;;5017202;28;20025;-27
2023/08/28 14:00:12;;;;;;;4.05;1.08;;;;;;;;;;5034532;28;20128;-28
2023/08/28 14:02:42;;;;;;;2.42;1.50;;;;;;;;;;5034532;28;20044;-27
2023/08/28 14:05:14;;;;;;;2.88;1.10;;;;;;;;;;5034616;28;20034;-29
2023/08/28 14:07:41;;;;;;;6.00;1.30;;;;;;;;;;5034588;28;20033;-24
2023/08/28 14:10:08;;;;;;;4.93;2.03;;;;;;;;;;5034851;28;20436;-23
2023/08/28 14:12:34;;;;;;;6.22;1.33;;;;;;;;;;5017025;28;20420;-25
2023/08/28 14:15:00;;;;;;;3.47;1.50;;;;;;;;;;5034456;28;20026;-30
2023/08/28 14:17:26;;;;;;;4.28;1.10;;;;;;;;;;5034401;28;20030;-28
2023/08/28 14:19:53;;;;;;;4.88;1.50;;;;;;;;;;5034442;28;20087;-28
2023/08/28 14:22:19;;;;;;;2.92;1.15;;;;;;;;;;5034385;28;20448;-26
2023/08/28 14:24:45;;;;;;;8.38;1.02;;;;;;;;;;5034678;28;20088;-34
2023/08/28 14:27:11;;;;;;;5.65;1.35;;;;;;;;;;5034632;28;20030;-27
2023/08/28 14:29:37;;;;;;;5.55;1.98;;;;;;;;;;5034358;28;20348;-25
2023/08/28 14:32:04;;;;;;;5.22;1.35;;;;;;;;;;5034225;28;20026;-26
2023/08/28 14:34:30;;;;;;;5.35;1.73;;;;;;;;;;5017145;28;20043;-24
2023/08/28 14:36:56;;;;;;;4.22;1.33;;;;;;;;;;5034211;28;20352;-26
2023/08/28 14:39:22;;;;;;;4.35;1.17;;;;;;;;;;5034490;28;20144;-24
2023/08/28 14:41:48;;;;;;;12.77;1.35;;;;;;;;;;5034392;28;20022;-26
2023/08/28 14:44:14;;;;;;;6.43;1.50;;;;;;;;;;5034225;28;20380;-27